Aeroporto :
LOGIN :

Iscrizione | Disclaimer

   EN    FR    IT 

 










Sommario :    VFR   VFR Marginale   IFR   IFR Intensivo   IFR Molto Intensivo
Visibilità : 
Base nubi : 
>= 8 km
>= 3000ft
5 / 8 km
1000 / 3000 ft
1500m / 5 km
500 / 1000 ft
800 / 1500m
200 / 500 ft
< 800m
< 200 ft
Simboli :   Temporali  Nebbia  Neve Forte  Precipitazioni Forti  Vento > 20 kt
SIGMETs :   Varie  Temporali  Ghiacco  Turbolenza  Onda orograficha  Ceneri Vulcaniche






- Altitudine del aeroporto : 1276 ft
- Codice IATA : STR


EDDS - Stuttgart

ULTIMO METAR :
  • 110550Z 22003KT 170V270 CAVOK M01/M05 Q1015 NOSIG

METARs OBSOLETI :
  • 110520Z VRB02KT CAVOK M03/M05 Q1015 NOSIG
  • 110450Z 10002KT CAVOK M03/M05 Q1015
  • 110420Z 10002KT CAVOK M03/M05 Q1016
  • 110350Z VRB01KT CAVOK M03/M05 Q1016
  • 110320Z 19003KT CAVOK M02/M04 Q1017

TAF TAF EDDS
Valido dal 11 a 06 ore il 12 a 06 ore UTC


110500Z 1106/1206 VRB02KT CAVOK
BECMG 1111/1113 20005KT
TEMPO 1113/1123 RA
PROB30
TEMPO 1116/1120 4000 RASN BKN014
PROB30
TEMPO 1203/1206 4000 -DZ BKN010



MetMap, La meteo Aeronautica in un colpo d'occhio ! - Copyright ORBIFLY Dicembre 2007 - Disclaimer

ORBIFLY MET'MAP TEAM :

Programmazione e sviluppo : Alexandra Zaïnal
Concezione : Baudouin d'Aumeries
Aiuto per la programmazione : Marc-Olivier Méhu
Supporto tecnico e logistico : Manuel Goepfert
Aiuto per la traduzione : Arnaldo La Scala

Contatto : metmap@orbifly.com




FONTI E CREDITI :

   NOAA